METAR Data
IDs: Format: Raw Decoded Include TAF

Data at: 2318 UTC 01 Mar 2021

Region: TOP
KATL 012252Z 33010KT 10SM FEW020 BKN085 OVC100 14/09 A3013 RMK AO2 SLP199 T01390094

KBOS 012254Z 28018G33KT 10SM FEW035 SCT130 03/M05 A2954 RMK AO2 PK WND 28034/2233 SLP001 T00331050

KBWI 012254Z 30012KT 10SM SCT080 SCT160 BKN250 09/M06 A2989 RMK AO2 PK WND 29039/2213 RAE30 SLP122 P0000 T00891056

KCLE 012251Z 30020G25KT 10SM FEW050 02/M07 A3013 RMK AO2 PK WND 29027/2210 SLP227 T00171072

KCLT 012252Z 31005KT 10SM FEW055 FEW075 BKN100 OVC250 14/M01 A3003 RMK AO2 RAB22E33 SLP164 P0000 T01441011

KCVG 012252Z 31011KT 10SM FEW050 FEW250 06/M07 A3020 RMK AO2 SLP231 T00611067

KDCA 012252Z 30011G22KT 10SM SCT070 SCT210 SCT240 10/M04 A2992 RMK AO2 PK WND 29031/2237 SLP131 T01001044

KDEN 012253Z 16008KT 10SM CLR 10/M10 A3019 RMK AO2 SLP225 T01001100

KDFW 012253Z 01011KT 10SM FEW030 BKN100 BKN130 14/01 A3025 RMK AO2 SLP240 T01390006

KDTW 012253Z 32015G22KT 10SM CLR M01/M14 A3018 RMK AO2 PK WND 29031/2154 SLP228 T10061139

KEWR 012251Z 30015G22KT 10SM FEW055 FEW120 SCT240 07/M07 A2974 RMK AO2 PK WND 29026/2225 PRESRR SLP071 T00671072

KFLL 012253Z 16012KT 10SM FEW025 27/21 A3005

KIAD 012252Z 30022G34KT 10SM SCT080 BKN230 BKN250 08/M04 A2993 RMK AO2 PK WND 30034/2249 PRESRR SLP136 T00831044

KIAH 012253Z 03016G26KT 10SM OVC018 14/10 A3009 RMK AO2 PK WND 04026/2235 LTG DSNT N SLP189 T01440100

KJFK 012251Z 31022G29KT 10SM FEW048 SCT065 SCT250 07/M07 A2972 RMK AO2 PK WND 30031/2240 SLP065 T00721072

KLAS 012256Z 31005KT 10SM CLR 15/M17 A3023 RMK AO2 SLP236 T01501167

KLAX 012253Z 23010KT 10SM CLR 21/M09 A3009 RMK AO2 SLP187 T02061094

KLGA 012251Z 31025G32KT 10SM FEW032 SCT250 07/M08 A2973 RMK AO2 PK WND 31037/2226 PRESRR SLP066 T00721078

KMCO 012253Z 28007KT 10SM FEW055 BKN300 29/18 A3000 RMK AO2 SLP158 T02890178

KMDW 012253Z 32005KT 10SM FEW038 01/M12 A3031 RMK AO2 SLP278 T00061122

KMEM 012254Z 03008KT 10SM SCT120 BKN180 BKN250 09/M01 A3029 RMK AO2 SLP255 T00891011 $

KMIA 012253Z 14011KT 10SM FEW021 FEW250 26/21 A3005 RMK AO2 SLP174 T02610211

KMSP 012253Z 23004KT 10SM CLR M04/M18 A3037 RMK AO2 SLP299 T10441178

KORD 012251Z 30009KT 10SM CLR 00/M13 A3031 RMK AO2 SLP272 T00001133

KPDX 012253Z 36004KT 10SM FEW030 FEW100 BKN200 BKN250 15/04 A3007 RMK AO2 SLP182 T01500044

KPHL 012254Z 30022G30KT 10SM FEW045 SCT110 BKN240 08/M08 A2982 RMK AO2 PK WND 30036/2240 SLP099 T00781078

KPHX 012251Z 35003KT 10SM FEW250 20/M14 A3016 RMK AO2 SLP205 T02001139

KPIT 012251Z 30017G25KT 7SM -SN FEW009 SCT019 BKN036 00/M02 A3006 RMK AO2 PK WND 32034/2235 SNB17 SLP196 VIS LWR E-S P0000 T00001022

KSAN 012251Z 27010KT 10SM CLR 22/M03 A3009 RMK AO2 RAB07E35 SLP190 P0000 T02221033

KSEA 012253Z 21010KT 10SM FEW050 FEW140 SCT250 13/03 A3005 RMK AO2 SLP184 T01330033

KSFO 012256Z 18017KT 10SM CLR 21/M04 A3005 RMK AO2 SLP176 T02061039

KSLC 012254Z VRB04KT 10SM CLR 08/M07 A3029 RMK AO2 SLP255 T00781072

KSTL 012251Z VRB05KT 10SM FEW050 FEW250 10/M04 A3030 RMK AO2 SLP266 T01001044

KTPA 012253Z 22006KT 10SM FEW026 SCT140 SCT250 26/21 A3003 RMK AO2 SLP170 T02560206